createdAt,value
2017-09-02T00:00:04.595Z,5.60
2017-09-02T00:02:32.205Z,5.53
2017-09-02T00:04:59.679Z,6.05
2017-09-02T00:07:27.211Z,5.35
2017-09-02T00:09:54.677Z,5.80
2017-09-02T00:12:22.210Z,5.43
2017-09-02T00:14:49.680Z,5.35
2017-09-02T00:17:17.123Z,6.17
2017-09-02T00:19:44.578Z,5.90
2017-09-02T00:22:12.018Z,5.40
2017-09-02T00:24:39.496Z,6.43
2017-09-02T00:27:06.965Z,5.10
2017-09-02T00:29:34.406Z,5.40
2017-09-02T00:32:01.870Z,6.00
2017-09-02T00:34:29.304Z,5.60
2017-09-02T00:36:56.790Z,5.20
2017-09-02T00:39:24.245Z,6.80
2017-09-02T00:41:51.695Z,5.75
2017-09-02T00:44:19.212Z,5.25
2017-09-02T00:46:46.834Z,6.32
2017-09-02T00:49:14.369Z,5.70
2017-09-02T00:51:41.942Z,6.15
2017-09-02T00:54:09.382Z,5.60
2017-09-02T00:56:36.925Z,6.53
2017-09-02T00:59:04.397Z,6.55
2017-09-02T01:01:31.862Z,5.53
2017-09-02T01:03:59.293Z,5.90
2017-09-02T01:06:26.747Z,6.43
2017-09-02T01:08:54.215Z,5.80
2017-09-02T01:11:21.683Z,6.07
2017-09-02T01:13:49.134Z,5.85
2017-09-02T01:16:16.567Z,5.90
2017-09-02T01:18:44.039Z,5.57
2017-09-02T01:21:11.507Z,5.62
2017-09-02T01:23:38.984Z,6.47
2017-09-02T01:26:06.403Z,5.80
2017-09-02T01:28:33.853Z,6.43
2017-09-02T01:31:01.287Z,6.40
2017-09-02T01:33:28.784Z,5.80
2017-09-02T01:35:56.215Z,7.25
2017-09-02T01:38:23.657Z,8.90
2017-09-02T01:40:51.184Z,6.60
2017-09-02T01:43:18.619Z,6.20
2017-09-02T01:45:46.051Z,6.65
2017-09-02T01:48:14.263Z,6.82
2017-09-02T01:50:41.690Z,6.97
2017-09-02T01:53:09.175Z,6.97
2017-09-02T01:55:36.643Z,8.93
2017-09-02T01:58:04.107Z,7.60
2017-09-02T02:00:31.566Z,7.40
2017-09-02T02:02:59.022Z,7.00
2017-09-02T02:05:26.586Z,6.68
2017-09-02T02:07:54.047Z,7.20
2017-09-02T02:10:21.563Z,7.10
2017-09-02T02:12:49.002Z,7.03
2017-09-02T02:15:16.495Z,7.75
2017-09-02T02:17:43.967Z,7.30
2017-09-02T02:20:11.406Z,7.80
2017-09-02T02:22:38.834Z,8.10
2017-09-02T02:25:06.321Z,8.02
2017-09-02T02:27:33.764Z,7.55
2017-09-02T02:30:01.229Z,7.60
2017-09-02T02:32:28.695Z,8.30
2017-09-02T02:34:56.158Z,8.10
2017-09-02T02:37:23.611Z,8.13
2017-09-02T02:39:51.046Z,8.40
2017-09-02T02:42:18.603Z,9.50
2017-09-02T02:44:46.050Z,8.00
2017-09-02T02:47:13.542Z,8.52
2017-09-02T02:49:40.979Z,9.13
2017-09-02T02:52:08.416Z,8.00
2017-09-02T02:54:35.854Z,10.13
2017-09-02T02:57:03.355Z,9.77
2017-09-02T02:59:30.787Z,8.50
2017-09-02T03:01:58.250Z,7.50
2017-09-02T03:04:25.726Z,8.40
2017-09-02T03:06:53.167Z,8.50
2017-09-02T03:09:20.675Z,9.15
2017-09-02T03:11:48.106Z,9.00
2017-09-02T03:14:15.539Z,10.90
2017-09-02T03:16:42.987Z,9.20
2017-09-02T03:19:10.470Z,10.75
2017-09-02T03:21:37.934Z,9.10
2017-09-02T03:24:05.395Z,9.48
2017-09-02T03:26:32.855Z,9.65
2017-09-02T03:29:00.306Z,9.52
2017-09-02T03:31:27.847Z,10.80
2017-09-02T03:33:55.322Z,10.52
2017-09-02T03:36:22.772Z,8.82
2017-09-02T03:38:50.306Z,9.18
2017-09-02T03:41:17.761Z,8.95
2017-09-02T03:43:45.234Z,9.20
2017-09-02T03:46:12.671Z,9.80
2017-09-02T03:48:40.157Z,12.43
2017-09-02T03:51:07.607Z,10.25
2017-09-02T03:53:35.077Z,9.90
2017-09-02T03:56:02.543Z,10.67
2017-09-02T03:58:29.982Z,10.30
2017-09-02T04:00:57.440Z,9.80
2017-09-02T04:03:24.917Z,11.75
2017-09-02T04:05:52.443Z,10.20
2017-09-02T04:08:19.918Z,10.23
2017-09-02T04:10:47.352Z,10.02
2017-09-02T04:13:14.856Z,13.82
2017-09-02T04:15:42.299Z,11.15
2017-09-02T04:18:09.836Z,10.70
2017-09-02T04:20:37.286Z,10.15
2017-09-02T04:23:04.727Z,10.50
2017-09-02T04:25:32.169Z,11.12
2017-09-02T04:27:59.667Z,11.65
2017-09-02T04:30:27.215Z,12.57
2017-09-02T04:32:54.698Z,11.20
2017-09-02T04:35:22.222Z,10.45
2017-09-02T04:37:49.668Z,11.57
2017-09-02T04:40:17.147Z,12.48
2017-09-02T04:42:44.603Z,11.50
2017-09-02T04:45:12.158Z,11.57
2017-09-02T04:47:39.632Z,11.40
2017-09-02T04:50:07.183Z,11.68
2017-09-02T04:52:34.632Z,12.70
2017-09-02T04:55:02.202Z,11.77
2017-09-02T04:57:29.643Z,12.13
2017-09-02T04:59:57.103Z,11.27
2017-09-02T05:02:24.543Z,11.65
2017-09-02T05:04:52.048Z,11.70
2017-09-02T05:07:19.582Z,14.43
2017-09-02T05:09:47.055Z,11.70
2017-09-02T05:12:14.512Z,12.00
2017-09-02T05:14:41.969Z,12.43
2017-09-02T05:17:09.411Z,11.40
2017-09-02T05:19:36.861Z,14.30
2017-09-02T05:22:04.303Z,14.07
2017-09-02T05:24:31.762Z,11.43
2017-09-02T05:26:59.219Z,11.43
2017-09-02T05:29:26.678Z,15.23
2017-09-02T05:31:54.132Z,11.23
2017-09-02T05:34:21.566Z,10.98
2017-09-02T05:36:49.012Z,12.68
2017-09-02T05:39:16.459Z,10.93
2017-09-02T05:41:43.914Z,11.85
2017-09-02T05:44:11.420Z,12.63
2017-09-02T05:46:38.967Z,11.20
2017-09-02T05:49:06.436Z,10.90
2017-09-02T05:51:34.082Z,11.77
2017-09-02T05:54:01.563Z,11.05
2017-09-02T05:56:29.094Z,11.02
2017-09-02T05:58:56.674Z,10.85
2017-09-02T06:01:24.120Z,13.32
2017-09-02T06:03:51.562Z,11.38
2017-09-02T06:06:19.054Z,11.02
2017-09-02T06:08:46.607Z,12.35
2017-09-02T06:11:14.150Z,11.23
2017-09-02T06:13:41.612Z,11.50
2017-09-02T06:16:09.062Z,11.18
2017-09-02T06:18:36.541Z,11.80
2017-09-02T06:21:03.970Z,10.98
2017-09-02T06:23:31.561Z,10.27
2017-09-02T06:25:59.030Z,11.02
2017-09-02T06:28:26.544Z,11.30
2017-09-02T06:30:54.084Z,11.10
2017-09-02T06:33:21.519Z,10.43
2017-09-02T06:35:49.014Z,10.02
2017-09-02T06:38:16.471Z,11.45
2017-09-02T06:40:43.926Z,10.27
2017-09-02T06:43:11.418Z,10.40
2017-09-02T06:45:38.856Z,10.88
2017-09-02T06:48:06.293Z,9.93
2017-09-02T06:50:33.727Z,11.40
2017-09-02T06:53:01.192Z,9.70
2017-09-02T06:56:52.217Z,8.90
2017-09-02T06:59:19.671Z,9.30
2017-09-02T07:01:47.169Z,8.70
2017-09-02T07:04:14.695Z,8.57
2017-09-02T07:06:42.158Z,7.82
2017-09-02T07:09:09.614Z,8.18
2017-09-02T07:11:37.086Z,9.07
2017-09-02T07:14:04.543Z,7.28
2017-09-02T07:16:32.161Z,7.47
2017-09-02T07:18:59.676Z,8.32
2017-09-02T07:21:27.133Z,9.00
2017-09-02T07:23:54.590Z,8.38
2017-09-02T07:26:22.048Z,7.55
2017-09-02T07:28:49.506Z,8.98
2017-09-02T07:31:16.968Z,7.28
2017-09-02T07:33:44.472Z,9.30
2017-09-02T07:36:11.924Z,8.07
2017-09-02T07:38:39.395Z,7.12
2017-09-02T07:41:06.938Z,8.75
2017-09-02T07:43:34.383Z,8.23
2017-09-02T07:46:01.819Z,6.85
2017-09-02T07:48:29.311Z,7.60
2017-09-02T07:50:57.527Z,6.75
2017-09-02T07:53:25.103Z,8.80
2017-09-02T07:55:52.587Z,7.37
2017-09-02T07:58:20.138Z,6.68
2017-09-02T08:00:47.575Z,5.63
2017-09-02T08:03:15.053Z,5.40
2017-09-02T08:05:42.498Z,6.97
2017-09-02T08:08:09.928Z,5.93
2017-09-02T08:10:37.387Z,5.20
2017-09-02T08:13:04.830Z,5.30
2017-09-02T08:15:32.334Z,5.65
2017-09-02T08:17:59.790Z,6.37
2017-09-02T08:20:27.255Z,6.80
2017-09-02T08:22:54.675Z,5.97
2017-09-02T08:25:22.123Z,6.35
2017-09-02T08:27:49.575Z,5.97
2017-09-02T08:30:17.039Z,5.28
2017-09-02T08:32:44.527Z,5.50
2017-09-02T08:35:11.977Z,6.07
2017-09-02T08:37:39.407Z,5.40
2017-09-02T08:40:06.885Z,4.15
2017-09-02T08:42:34.353Z,4.40
2017-09-02T08:45:01.791Z,4.70
2017-09-02T08:47:29.239Z,4.90
2017-09-02T08:49:56.726Z,6.00
2017-09-02T08:52:24.302Z,6.28
2017-09-02T08:54:51.841Z,4.22
2017-09-02T08:57:19.277Z,3.90
2017-09-02T08:59:46.738Z,3.83
2017-09-02T09:02:14.167Z,3.85
2017-09-02T09:04:41.611Z,6.60
2017-09-02T09:07:09.118Z,5.97
2017-09-02T09:09:36.596Z,4.23
2017-09-02T09:12:04.044Z,5.53
2017-09-02T09:14:31.502Z,3.12
2017-09-02T09:16:58.919Z,3.17
2017-09-02T09:19:26.366Z,4.00
2017-09-02T09:21:53.844Z,2.70
2017-09-02T09:24:21.295Z,2.47
2017-09-02T09:26:48.757Z,2.40
2017-09-02T09:29:16.187Z,2.67
2017-09-02T09:31:43.636Z,3.20
2017-09-02T09:34:11.074Z,2.97
2017-09-02T09:36:38.510Z,3.60
2017-09-02T09:39:05.951Z,3.00
2017-09-02T09:41:33.384Z,2.45
2017-09-02T09:44:00.816Z,2.03
2017-09-02T09:46:28.249Z,2.42
2017-09-02T09:48:55.689Z,3.17
2017-09-02T09:51:23.112Z,3.25
2017-09-02T09:53:50.548Z,3.17
2017-09-02T09:56:18.008Z,3.30
2017-09-02T09:58:45.463Z,3.50
2017-09-02T10:01:12.925Z,3.90
2017-09-02T10:03:40.378Z,2.35
2017-09-02T10:06:07.810Z,3.00
2017-09-02T10:08:35.266Z,3.00
2017-09-02T10:11:02.771Z,2.40
2017-09-02T10:13:30.192Z,2.10
2017-09-02T10:15:57.641Z,2.42
2017-09-02T10:18:25.069Z,3.17
2017-09-02T10:20:52.505Z,2.72
2017-09-02T10:23:19.926Z,4.10
2017-09-02T10:25:47.391Z,3.67
2017-09-02T10:28:14.838Z,2.45
2017-09-02T10:30:42.295Z,2.72
2017-09-02T10:33:09.743Z,2.05
2017-09-02T10:35:37.192Z,2.90
2017-09-02T10:38:04.648Z,4.70
2017-09-02T10:40:32.087Z,2.77
2017-09-02T10:42:59.527Z,2.08
2017-09-02T10:45:26.981Z,2.30
2017-09-02T10:47:54.406Z,2.80
2017-09-02T10:50:21.873Z,2.72
2017-09-02T10:52:49.291Z,2.20
2017-09-02T10:55:16.725Z,2.80
2017-09-02T10:57:44.179Z,2.60
2017-09-02T11:00:11.626Z,3.20
2017-09-02T11:02:48.997Z,2.90
2017-09-02T11:05:16.423Z,2.45
2017-09-02T11:07:43.905Z,2.47
2017-09-02T11:10:11.346Z,2.65
2017-09-02T11:12:38.794Z,2.72
2017-09-02T11:15:06.217Z,3.80
2017-09-02T11:17:33.679Z,2.50
2017-09-02T11:20:01.107Z,2.22
2017-09-02T11:22:28.547Z,2.80
2017-09-02T11:24:55.970Z,3.40
2017-09-02T11:27:23.704Z,2.58
2017-09-02T11:29:51.129Z,3.87
2017-09-02T11:32:18.562Z,2.47
2017-09-02T11:34:46.011Z,3.15
2017-09-02T11:37:13.447Z,3.50
2017-09-02T11:39:40.877Z,3.55
2017-09-02T11:42:08.359Z,2.70
2017-09-02T11:44:35.803Z,2.50
2017-09-02T11:47:03.263Z,2.20
2017-09-02T11:49:30.726Z,2.20
2017-09-02T11:51:58.192Z,2.97
2017-09-02T11:54:25.649Z,2.95
2017-09-02T11:56:53.076Z,2.03
2017-09-02T11:59:20.523Z,2.35
2017-09-02T12:01:47.953Z,2.05
2017-09-02T12:04:15.388Z,2.30
2017-09-02T12:06:42.827Z,3.30
2017-09-02T12:09:10.286Z,4.15
2017-09-02T12:11:37.726Z,3.23
2017-09-02T12:14:05.177Z,2.22
2017-09-02T12:16:32.631Z,2.50
2017-09-02T12:19:00.155Z,1.70
2017-09-02T12:21:27.575Z,2.45
2017-09-02T12:23:55.015Z,2.00
2017-09-02T12:26:22.476Z,3.00
2017-09-02T12:28:49.913Z,2.28
2017-09-02T12:31:17.339Z,1.90
2017-09-02T12:33:44.780Z,2.08
2017-09-02T12:36:12.223Z,3.70
2017-09-02T12:38:39.650Z,2.20
2017-09-02T12:41:07.107Z,1.92
2017-09-02T12:43:34.548Z,2.10
2017-09-02T12:46:01.979Z,1.60
2017-09-02T12:48:29.407Z,2.00
2017-09-02T12:50:56.851Z,2.80
2017-09-02T12:53:24.299Z,1.83
2017-09-02T12:55:51.778Z,2.10
2017-09-02T12:58:19.232Z,2.22
2017-09-02T13:00:46.667Z,2.75
2017-09-02T13:06:33.190Z,2.95
2017-09-02T13:09:00.615Z,2.20
2017-09-02T13:11:28.082Z,2.20
2017-09-02T13:13:55.534Z,2.80
2017-09-02T13:16:22.995Z,2.17
2017-09-02T13:18:50.430Z,2.87
2017-09-02T13:21:17.863Z,3.70
2017-09-02T13:23:45.308Z,2.12
2017-09-02T13:29:15.732Z,2.20
2017-09-02T13:31:43.183Z,2.28
2017-09-02T13:34:10.625Z,2.22
2017-09-02T13:36:38.086Z,3.45
2017-09-02T13:39:05.547Z,2.22
2017-09-02T13:41:33.013Z,2.30
2017-09-02T13:44:00.447Z,2.12
2017-09-02T13:46:27.892Z,2.20
2017-09-02T13:48:55.315Z,2.20
2017-09-02T13:51:22.785Z,2.60
2017-09-02T13:53:50.222Z,2.30
2017-09-02T13:56:17.679Z,2.30
2017-09-02T13:58:45.138Z,2.20
2017-09-02T14:01:12.580Z,3.72
2017-09-02T14:03:40.024Z,2.70
2017-09-02T14:06:07.447Z,3.00
2017-09-02T14:08:34.944Z,2.50
2017-09-02T14:11:02.390Z,2.35
2017-09-02T14:13:29.849Z,2.20
2017-09-02T14:15:57.277Z,2.20
2017-09-02T14:18:24.728Z,2.03
2017-09-02T14:20:52.175Z,2.20
2017-09-02T14:23:19.618Z,2.15
2017-09-02T14:25:47.055Z,2.50
2017-09-02T14:28:14.512Z,2.28
2017-09-02T14:30:41.971Z,2.20
2017-09-02T14:33:09.416Z,2.12
2017-09-02T14:35:36.857Z,3.20
2017-09-02T14:38:04.298Z,2.72
2017-09-02T14:40:31.768Z,2.97
2017-09-02T14:42:59.234Z,2.53
2017-09-02T14:45:26.694Z,2.78
2017-09-02T14:47:54.142Z,2.60
2017-09-02T14:50:21.624Z,2.97
2017-09-02T14:52:49.055Z,2.90
2017-09-02T14:55:16.511Z,2.70
2017-09-02T14:57:43.967Z,2.72
2017-09-02T15:00:11.423Z,2.37
2017-09-02T15:05:31.866Z,3.50
2017-09-02T15:07:59.353Z,2.30
2017-09-02T15:10:26.803Z,2.40
2017-09-02T15:12:54.247Z,2.60
2017-09-02T15:15:21.699Z,4.00
2017-09-02T15:17:49.145Z,2.55
2017-09-02T15:20:16.587Z,2.30
2017-09-02T15:22:44.030Z,2.87
2017-09-02T15:25:11.480Z,2.50
2017-09-02T15:27:38.904Z,2.30
2017-09-02T15:30:06.368Z,2.40
2017-09-02T15:32:33.818Z,1.60
2017-09-02T15:35:01.279Z,1.80
2017-09-02T15:37:28.700Z,2.60
2017-09-02T15:39:56.154Z,2.20
2017-09-02T15:42:23.582Z,2.30
2017-09-02T15:44:51.020Z,2.40
2017-09-02T15:47:18.464Z,2.87
2017-09-02T15:49:45.921Z,2.42
2017-09-02T15:52:13.392Z,2.50
2017-09-02T15:54:40.814Z,2.72
2017-09-02T15:57:08.246Z,2.50
2017-09-02T15:59:35.687Z,3.53
2017-09-02T16:02:03.123Z,2.90
2017-09-02T16:04:30.586Z,2.70
2017-09-02T16:06:58.038Z,3.70
2017-09-02T16:09:25.473Z,2.92
2017-09-02T16:11:52.930Z,3.00
2017-09-02T16:14:20.402Z,2.92
2017-09-02T16:16:47.831Z,2.65
2017-09-02T16:19:15.276Z,2.12
2017-09-02T16:21:42.711Z,2.30
2017-09-02T16:24:10.178Z,2.50
2017-09-02T16:26:37.620Z,2.33
2017-09-02T16:29:05.075Z,3.80
2017-09-02T16:31:32.497Z,3.17
2017-09-02T16:33:59.922Z,2.15
2017-09-02T16:36:27.457Z,3.33
2017-09-02T16:38:54.907Z,2.50
2017-09-02T16:41:22.371Z,3.15
2017-09-02T16:43:49.835Z,2.58
2017-09-02T16:46:17.308Z,2.80
2017-09-02T16:48:44.751Z,2.62
2017-09-02T16:51:12.194Z,2.90
2017-09-02T16:53:39.627Z,3.00
2017-09-02T16:56:07.070Z,3.30
2017-09-02T16:58:34.514Z,2.35
2017-09-02T17:01:01.962Z,2.30
2017-09-02T17:03:29.400Z,2.30
2017-09-02T17:05:56.823Z,2.60
2017-09-02T17:08:24.286Z,2.40
2017-09-02T17:10:51.706Z,3.30
2017-09-02T17:13:19.176Z,2.60
2017-09-02T17:15:46.687Z,3.17
2017-09-02T17:18:14.126Z,2.50
2017-09-02T17:20:41.599Z,3.92
2017-09-02T17:23:09.034Z,3.17
2017-09-02T17:25:36.500Z,2.90
2017-09-02T17:28:04.012Z,3.78
2017-09-02T17:30:31.490Z,3.20
2017-09-02T17:32:58.996Z,3.50
2017-09-02T17:35:26.456Z,2.97
2017-09-02T17:37:53.934Z,2.90
2017-09-02T17:40:21.386Z,2.30
2017-09-02T17:42:48.847Z,3.25
2017-09-02T17:45:16.302Z,2.37
2017-09-02T17:47:43.796Z,2.60
2017-09-02T17:50:11.270Z,2.50
2017-09-02T17:52:38.774Z,3.83
2017-09-02T17:55:06.211Z,3.05
2017-09-02T17:57:38.580Z,2.50
2017-09-02T18:00:06.023Z,4.00
2017-09-02T18:02:33.466Z,3.20
2017-09-02T18:05:00.891Z,3.63
2017-09-02T18:07:28.329Z,3.60
2017-09-02T18:09:55.762Z,2.70
2017-09-02T18:12:23.203Z,2.87
2017-09-02T18:14:50.649Z,3.95
2017-09-02T18:17:18.067Z,3.10
2017-09-02T18:19:45.513Z,3.20
2017-09-02T18:22:12.975Z,3.50
2017-09-02T18:24:40.415Z,3.90
2017-09-02T18:27:07.886Z,4.35
2017-09-02T18:29:35.321Z,3.90
2017-09-02T18:32:02.774Z,3.78
2017-09-02T18:34:30.216Z,3.95
2017-09-02T18:36:57.635Z,3.67
2017-09-02T18:39:25.087Z,3.80
2017-09-02T18:41:52.531Z,4.73
2017-09-02T18:44:19.968Z,4.90
2017-09-02T18:46:47.426Z,3.65
2017-09-02T18:49:14.859Z,3.50
2017-09-02T18:51:42.290Z,3.25
2017-09-02T18:54:09.750Z,3.17
2017-09-02T18:56:37.979Z,4.95
2017-09-02T18:59:05.434Z,3.80
2017-09-02T19:01:33.778Z,4.50
2017-09-02T19:04:01.230Z,4.75
2017-09-02T19:06:28.659Z,4.80
2017-09-02T19:08:56.094Z,4.75
2017-09-02T19:11:23.531Z,4.93
2017-09-02T19:13:50.963Z,5.50
2017-09-02T19:16:18.428Z,4.65
2017-09-02T19:18:45.891Z,4.90
2017-09-02T19:21:13.335Z,4.68
2017-09-02T19:23:40.786Z,4.68
2017-09-02T19:26:08.230Z,4.90
2017-09-02T19:28:35.648Z,4.82
2017-09-02T19:31:03.111Z,5.80
2017-09-02T19:33:30.547Z,5.32
2017-09-02T19:35:58.038Z,5.30
2017-09-02T19:38:25.475Z,5.60
2017-09-02T19:40:52.906Z,6.15
2017-09-02T19:43:20.351Z,8.95
2017-09-02T19:45:47.808Z,9.57
2017-09-02T19:48:15.243Z,8.40
2017-09-02T19:50:42.686Z,6.12
2017-09-02T19:53:10.158Z,7.40
2017-09-02T19:55:37.605Z,7.15
2017-09-02T19:58:05.073Z,7.20
2017-09-02T20:00:32.519Z,7.77
2017-09-02T20:02:59.941Z,7.57
2017-09-02T20:05:27.387Z,7.75
2017-09-02T20:07:54.820Z,8.20
2017-09-02T20:10:22.261Z,8.50
2017-09-02T20:12:49.732Z,9.25
2017-09-02T20:15:17.174Z,9.20
2017-09-02T20:17:44.613Z,9.30
2017-09-02T20:20:12.044Z,9.90
2017-09-02T20:22:39.481Z,9.57
2017-09-02T20:25:06.942Z,12.23
2017-09-02T20:27:34.375Z,10.43
2017-09-02T20:30:01.810Z,10.50
2017-09-02T20:32:29.263Z,11.77
2017-09-02T20:34:56.714Z,10.40
2017-09-02T20:37:24.151Z,10.90
2017-09-02T20:39:51.654Z,10.38
2017-09-02T20:42:19.094Z,9.23
2017-09-02T20:44:46.536Z,9.90
2017-09-02T20:47:13.988Z,9.98
2017-09-02T20:49:41.482Z,10.48
2017-09-02T20:52:08.921Z,10.55
2017-09-02T20:54:36.368Z,10.32
2017-09-02T20:57:03.821Z,12.10
2017-09-02T20:59:31.278Z,13.70
2017-09-02T21:01:58.739Z,11.65
2017-09-02T21:04:26.202Z,11.45
2017-09-02T21:06:53.642Z,10.80
2017-09-02T21:09:21.113Z,10.75
2017-09-02T21:11:48.570Z,11.07
2017-09-02T21:14:16.015Z,10.80
2017-09-02T21:16:43.451Z,10.05
2017-09-02T21:19:10.921Z,12.05
2017-09-02T21:21:38.388Z,12.13
2017-09-02T21:24:05.851Z,11.30
2017-09-02T21:26:33.287Z,10.45
2017-09-02T21:29:00.754Z,10.93
2017-09-02T21:31:28.173Z,11.00
2017-09-02T21:33:55.623Z,10.20
2017-09-02T21:36:23.070Z,10.17
2017-09-02T21:38:50.693Z,11.25
2017-09-02T21:41:18.164Z,10.20
2017-09-02T21:43:45.755Z,11.20
2017-09-02T21:46:13.187Z,10.17
2017-09-02T21:48:40.639Z,8.95
2017-09-02T21:51:08.063Z,10.48
2017-09-02T21:53:35.534Z,10.98
2017-09-02T21:56:03.052Z,10.77
2017-09-02T21:58:30.562Z,10.10
2017-09-02T22:00:58.033Z,9.60
2017-09-02T22:03:25.655Z,9.98
2017-09-02T22:05:53.148Z,10.33
2017-09-02T22:08:20.610Z,10.73
2017-09-02T22:10:48.145Z,8.73
2017-09-02T22:13:15.717Z,9.57
2017-09-02T22:15:43.168Z,9.83
2017-09-02T22:18:10.604Z,10.73
2017-09-02T22:20:38.048Z,11.32
2017-09-02T22:23:05.507Z,10.35
2017-09-02T22:25:32.982Z,9.90
2017-09-02T22:28:00.399Z,9.43
2017-09-02T22:30:27.835Z,9.82
2017-09-02T22:32:55.294Z,11.12
2017-09-02T22:35:22.737Z,30.67
2017-09-02T22:37:50.207Z,12.60
2017-09-02T22:40:17.648Z,14.45
2017-09-02T22:42:45.083Z,15.43
2017-09-02T22:45:12.539Z,11.20
2017-09-02T22:47:39.981Z,12.80
2017-09-02T22:50:07.439Z,11.60
2017-09-02T22:52:34.878Z,11.10
2017-09-02T22:55:02.342Z,10.45
2017-09-02T22:57:29.779Z,9.40
2017-09-02T22:59:57.207Z,9.82
2017-09-02T23:02:24.657Z,10.60
2017-09-02T23:04:52.086Z,9.88
2017-09-02T23:07:19.527Z,10.00
2017-09-02T23:09:46.963Z,9.52
2017-09-02T23:12:14.399Z,10.20
2017-09-02T23:14:41.839Z,9.15
2017-09-02T23:17:09.295Z,11.07
2017-09-02T23:19:36.759Z,11.47
2017-09-02T23:22:04.199Z,10.93
2017-09-02T23:24:31.644Z,12.52
2017-09-02T23:26:59.107Z,11.93
2017-09-02T23:29:26.559Z,11.80
2017-09-02T23:31:54.022Z,12.00
2017-09-02T23:34:21.478Z,13.15
2017-09-02T23:36:48.941Z,12.13
2017-09-02T23:39:16.407Z,15.40
2017-09-02T23:41:43.854Z,11.93
2017-09-02T23:44:11.317Z,11.90
2017-09-02T23:46:38.753Z,12.40
2017-09-02T23:49:06.193Z,12.15
2017-09-02T23:51:33.638Z,12.25
2017-09-02T23:54:01.074Z,12.70
2017-09-02T23:56:28.510Z,12.45
2017-09-02T23:58:55.948Z,12.30
